Saundersville, Massachusetts
Current Conditions -  °F | °C
As of 7:54 AM on Saturday 20 Dec 2014 (Local Time) from KORH Reporting Station
Overcast Overcast  
Wind Chill: 17°   Ceiling: 2300
Heat Index: 25°   Visibility: 10mi
Dew Point: 17°   Wind: 7mph
Humidity: 72%   Direction: 20°NNE
Pressure: 30.23"   Gusts: NA
Location:  42.1762°N, 71.6944°W
Report Text: KORH 201254Z 02006KT 10SM OVC023 M04/M08 A3023 RMK AO2 SLP253 T10391083
Loading
Personal Weather Stations






























Interactive Weather Map New forecast layout! Learn more

10-Day Weather Forecast

Advertisements
Track Severe Weather on mobile